Time;durP1;ratioP1;P1;durP2;ratioP2;P2;SDS_P1;SDS_P2;PMS_P1;PMS_P2;Temp;Humidity;BMP_temperature;BMP_pressure;BME280_temperature;BME280_humidity;BME280_pressure;Samples;Min_cycle;Max_cycle;Signal;HPM_P1;HPM_P2
2023/09/23 00:03:16;;;;;;;1.57;1.47;;;;;;;12.07;54.61;99483.25;10503409;28;20258;-76
2023/09/23 00:08:18;;;;;;;1.80;1.63;;;;;;;12.85;53.15;99427.19;10501206;28;20235;-75
2023/09/23 00:13:21;;;;;;;1.77;1.67;;;;;;;12.44;53.39;99484.56;10505615;28;20306;-76
2023/09/23 00:18:23;;;;;;;1.73;1.63;;;;;;;12.61;53.90;99441.25;10515906;28;20254;-75
2023/09/23 00:23:25;;;;;;;1.77;1.30;;;;;;;12.78;53.03;99442.47;10506108;28;20237;-75
2023/09/23 00:28:28;;;;;;;1.63;1.47;;;;;;;13.74;51.40;99387.25;10510965;28;20238;-75
2023/09/23 00:33:30;;;;;;;1.60;1.50;;;;;;;11.83;55.38;99497.97;10510146;28;20237;-75
2023/09/23 00:38:32;;;;;;;2.20;1.53;;;;;;;11.34;56.42;99478.31;10507495;28;20744;-74
2023/09/23 00:43:35;;;;;;;1.90;1.80;;;;;;;11.44;55.76;99471.59;10505734;28;20670;-75
2023/09/23 00:48:42;;;;;;;1.67;1.20;;;;;;;10.72;56.60;99571.72;10510554;28;20271;-75
2023/09/23 00:53:45;;;;;;;2.53;2.00;;;;;;;12.28;54.74;99391.88;10501100;28;20230;-75
2023/09/23 00:58:47;;;;;;;1.60;1.60;;;;;;;12.89;53.02;99384.63;10511393;28;20366;-74
2023/09/23 01:03:49;;;;;;;1.33;1.30;;;;;;;12.52;53.72;99417.31;10511663;28;20337;-75
2023/09/23 01:08:54;;;;;;;2.10;1.70;;;;;;;12.82;52.75;99418.72;10516583;28;20199;-75
2023/09/23 01:13:56;;;;;;;1.87;1.77;;;;;;;11.71;54.91;99500.41;10512099;28;20267;-75
2023/09/23 01:18:58;;;;;;;3.17;1.40;;;;;;;11.15;56.67;99479.84;10504982;28;20667;-75
2023/09/23 01:24:00;;;;;;;1.50;1.40;;;;;;;11.58;56.15;99404.69;10506508;28;20427;-75
2023/09/23 01:29:02;;;;;;;4.23;1.90;;;;;;;10.56;57.81;99503.22;10507099;28;20284;-75
2023/09/23 01:34:04;;;;;;;2.70;1.40;;;;;;;11.31;55.87;99452.75;10500202;28;20339;-74
2023/09/23 01:39:07;;;;;;;2.00;1.67;;;;;;;11.01;55.85;99517.25;10506744;28;20238;-77
2023/09/23 01:44:09;;;;;;;1.47;1.40;;;;;;;12.28;54.39;99361.53;10508719;28;20239;-75
2023/09/23 01:49:11;;;;;;;1.23;1.20;;;;;;;11.31;55.09;99527.78;10508463;28;20378;-75
2023/09/23 01:54:16;;;;;;;2.13;1.47;;;;;;;11.30;54.96;99528.78;10504357;28;20283;-75
2023/09/23 01:59:19;;;;;;;1.70;1.60;;;;;;;11.96;54.50;99439.03;10499878;28;20234;-75
2023/09/23 02:04:21;;;;;;;3.03;1.60;;;;;;;11.87;54.31;99483.16;10501937;28;20231;-75
2023/09/23 02:09:23;;;;;;;1.20;1.20;;;;;;;11.79;54.53;99519.00;10505832;28;20225;-75
2023/09/23 02:14:25;;;;;;;1.60;1.50;;;;;;;11.88;54.26;99511.63;10503594;28;20240;-75
2023/09/23 02:19:27;;;;;;;1.90;1.40;;;;;;;12.01;53.91;99511.66;10507653;28;20227;-75
2023/09/23 02:24:31;;;;;;;1.77;1.63;;;;;;;11.36;55.49;99532.56;10503022;28;20288;-75
2023/09/23 02:29:33;;;;;;;1.40;1.30;;;;;;;11.06;56.12;99551.47;10499656;28;20605;-75
2023/09/23 02:34:36;;;;;;;1.77;1.67;;;;;;;10.45;58.14;99530.50;10513807;22;20250;-37
2023/09/23 02:39:38;;;;;;;1.60;1.50;;;;;;;11.55;55.67;99474.75;10468512;28;20239;-34
2023/09/23 02:44:40;;;;;;;2.40;1.57;;;;;;;11.78;55.07;99487.88;10467794;28;20243;-35
2023/09/23 02:49:44;;;;;;;1.90;1.80;;;;;;;11.62;55.01;99535.44;10465562;28;20227;-35
2023/09/23 02:54:47;;;;;;;2.27;1.90;;;;;;;12.53;53.72;99459.19;10463282;28;20697;-35
2023/09/23 02:59:56;;;;;;;1.87;1.77;;;;;;;12.31;53.87;99473.81;10450891;28;20199;-36
2023/09/23 03:05:07;;;;;;;2.20;1.60;;;;;;;12.46;53.38;99508.50;10475349;22;20240;-36
2023/09/23 03:10:13;;;;;;;1.50;1.40;;;;;;;12.18;54.22;99529.09;10423390;28;20452;-37
2023/09/23 03:15:15;;;;;;;4.37;1.60;;;;;;;12.43;53.44;99525.00;10427730;28;20227;-37
2023/09/23 03:20:21;;;;;;;1.33;1.23;;;;;;;11.80;54.66;99585.81;10424130;28;20239;-37
2023/09/23 03:25:23;;;;;;;3.77;1.90;;;;;;;11.38;55.61;99600.16;10425761;28;20232;-37
2023/09/23 03:30:25;;;;;;;1.50;1.40;;;;;;;11.75;54.92;99577.53;10428538;28;20297;-37
2023/09/23 03:35:28;;;;;;;6.00;1.70;;;;;;;11.70;55.03;99605.97;10425993;28;20224;-37
2023/09/23 03:40:31;;;;;;;1.80;1.70;;;;;;;12.53;53.78;99475.28;10429697;28;20207;-37
2023/09/23 03:45:35;;;;;;;2.23;2.07;;;;;;;12.67;53.86;99469.94;10431440;28;20228;-37
2023/09/23 03:50:37;;;;;;;1.83;1.57;;;;;;;12.16;54.01;99595.53;10438558;28;20240;-35
2023/09/23 03:55:39;;;;;;;2.77;1.80;;;;;;;11.69;55.28;99586.38;10431686;28;20656;-37
2023/09/23 04:00:40;;;;;;;1.50;1.40;;;;;;;11.57;55.22;99628.94;10438345;28;20244;-36
2023/09/23 04:05:42;;;;;;;1.60;1.50;;;;;;;12.01;54.27;99581.38;10428743;28;20247;-37
2023/09/23 04:10:45;;;;;;;1.37;1.30;;;;;;;12.64;53.21;99538.31;10431326;28;20215;-37
2023/09/23 04:15:47;;;;;;;1.57;1.47;;;;;;;12.32;53.55;99578.22;10433997;28;20260;-37
2023/09/23 04:20:49;;;;;;;2.93;1.60;;;;;;;12.04;54.30;99612.38;10435896;28;20286;-37
2023/09/23 04:25:51;;;;;;;1.70;1.60;;;;;;;11.40;54.30;99713.31;10416677;28;20235;-37
2023/09/23 04:30:57;;;;;;;1.70;1.60;;;;;;;11.00;56.48;99625.38;10439037;28;20231;-37
2023/09/23 04:35:59;;;;;;;2.00;1.90;;;;;;;11.03;55.43;99645.56;10434139;28;20601;-37
2023/09/23 04:41:01;;;;;;;1.77;1.50;;;;;;;11.96;54.48;99541.78;10434707;28;20322;-37
2023/09/23 04:46:03;;;;;;;2.27;2.17;;;;;;;11.33;55.48;99594.56;10434038;28;20238;-37
2023/09/23 04:51:06;;;;;;;1.93;1.83;;;;;;;11.51;54.43;99629.72;10427066;28;20770;-37
2023/09/23 04:56:16;;;;;;;2.07;1.97;;;;;;;11.87;54.40;99555.56;10435506;28;20224;-37
2023/09/23 05:01:18;;;;;;;1.70;1.60;;;;;;;11.19;54.86;99661.41;10433371;28;21054;-37
2023/09/23 05:06:20;;;;;;;2.40;1.60;;;;;;;11.56;53.94;99627.28;10433313;28;20231;-37
2023/09/23 05:11:23;;;;;;;1.70;1.60;;;;;;;11.21;54.18;99688.81;10431702;28;20240;-37
2023/09/23 05:16:25;;;;;;;1.60;1.50;;;;;;;11.61;53.94;99657.00;10432425;28;20224;-37
2023/09/23 05:21:27;;;;;;;2.43;1.70;;;;;;;11.65;53.68;99643.25;10432599;28;20282;-37
2023/09/23 05:26:28;;;;;;;2.90;1.70;;;;;;;11.32;54.09;99714.28;10432151;28;20228;-37
2023/09/23 05:31:30;;;;;;;3.60;1.53;;;;;;;12.04;52.15;99698.19;10433721;28;20245;-36
2023/09/23 05:36:32;;;;;;;2.37;2.20;;;;;;;11.23;53.82;99777.84;10433991;28;20236;-36
2023/09/23 05:41:34;;;;;;;2.57;2.10;;;;;;;10.84;54.20;99794.25;10428066;28;20766;-37
2023/09/23 05:46:37;;;;;;;2.27;2.07;;;;;;;11.07;54.47;99732.56;10428787;28;20252;-36
2023/09/23 05:51:39;;;;;;;2.23;1.70;;;;;;;11.42;53.77;99682.63;10429831;28;20326;-36
2023/09/23 05:56:41;;;;;;;2.90;2.70;;;;;;;11.09;54.42;99746.56;10423132;28;20258;-37
2023/09/23 06:01:43;;;;;;;2.07;1.97;;;;;;;10.92;55.17;99748.66;10428363;28;20298;-36
2023/09/23 06:06:45;;;;;;;2.77;2.03;;;;;;;10.28;55.70;99864.22;10427482;28;20239;-36
2023/09/23 06:11:48;;;;;;;3.27;1.80;;;;;;;11.90;52.30;99737.50;10430452;28;20231;-37
2023/09/23 06:16:50;;;;;;;2.23;2.00;;;;;;;12.29;52.10;99683.28;10426633;28;20276;-37
2023/09/23 06:21:54;;;;;;;1.70;1.50;;;;;;;11.90;52.78;99767.81;10427676;28;20231;-37
2023/09/23 06:26:56;;;;;;;2.10;1.90;;;;;;;11.37;53.83;99829.72;10428974;28;20232;-37
2023/09/23 06:31:58;;;;;;;1.90;1.70;;;;;;;12.19;52.94;99729.22;10430976;28;20309;-37
2023/09/23 06:37:00;;;;;;;1.87;1.77;;;;;;;12.44;52.57;99731.44;10409319;28;20246;-37
2023/09/23 06:42:02;;;;;;;2.60;1.57;;;;;;;12.02;54.04;99765.41;10430583;28;20721;-37
2023/09/23 06:47:04;;;;;;;2.33;2.07;;;;;;;12.72;52.61;99725.19;10429213;28;20224;-37
2023/09/23 06:52:06;;;;;;;2.43;1.70;;;;;;;11.71;54.27;99856.91;10429297;28;20254;-37
2023/09/23 06:57:07;;;;;;;1.90;1.80;;;;;;;12.40;53.27;99778.50;10430386;28;20841;-37
2023/09/23 07:02:09;;;;;;;2.93;1.70;;;;;;;11.30;55.60;99892.28;10429408;28;20230;-37
2023/09/23 07:07:12;;;;;;;2.33;1.80;;;;;;;12.62;53.57;99728.28;10424560;28;20241;-36
2023/09/23 07:12:14;;;;;;;1.57;1.47;;;;;;;11.93;54.35;99850.56;10420545;28;20237;-36
2023/09/23 07:17:17;;;;;;;2.37;2.17;;;;;;;12.14;54.15;99820.19;10428808;28;20259;-37
2023/09/23 07:22:19;;;;;;;1.60;1.50;;;;;;;11.84;55.38;99880.34;10435069;28;20236;-37
2023/09/23 07:27:21;;;;;;;2.93;1.70;;;;;;;12.82;54.58;99723.00;10437196;28;20321;-36
2023/09/23 07:32:23;;;;;;;2.20;2.10;;;;;;;12.68;54.85;99767.72;10440766;28;20238;-37
2023/09/23 07:37:25;;;;;;;2.33;2.10;;;;;;;12.25;56.86;99754.47;10439466;28;20310;-37
2023/09/23 07:42:27;;;;;;;2.23;1.70;;;;;;;12.87;55.89;99758.13;10437888;28;20617;-37
2023/09/23 07:47:28;;;;;;;2.70;1.80;;;;;;;12.82;55.89;99774.00;10435030;28;21045;-37
2023/09/23 07:52:34;;;;;;;2.63;2.10;;;;;;;13.43;54.07;99756.22;10433380;28;20269;-37
2023/09/23 07:57:35;;;;;;;4.50;2.07;;;;;;;13.38;54.64;99746.13;10436372;28;20234;-36
2023/09/23 08:02:37;;;;;;;2.20;2.00;;;;;;;13.36;54.17;99796.56;10437836;28;20292;-37
2023/09/23 08:07:39;;;;;;;1.70;1.60;;;;;;;12.70;55.60;99851.59;10437253;28;20263;-37
2023/09/23 08:12:41;;;;;;;1.63;1.53;;;;;;;13.87;53.56;99792.50;10434905;28;20220;-37
2023/09/23 08:17:42;;;;;;;2.33;1.87;;;;;;;13.27;54.92;99852.28;10434538;28;20224;-37
2023/09/23 08:22:45;;;;;;;2.73;2.03;;;;;;;13.64;54.42;99885.13;10436634;28;20242;-37
2023/09/23 08:27:47;;;;;;;4.13;2.40;;;;;;;12.87;55.28;99970.28;10433302;28;20259;-37
2023/09/23 08:32:49;;;;;;;2.67;1.50;;;;;;;13.00;54.98;99949.91;10434249;28;20880;-37
2023/09/23 08:37:51;;;;;;;7.47;2.70;;;;;;;13.56;54.28;99912.19;10434681;28;20244;-37
2023/09/23 08:42:56;;;;;;;2.00;1.80;;;;;;;13.37;54.63;99900.34;10437077;28;20228;-37
2023/09/23 08:47:58;;;;;;;1.80;1.70;;;;;;;14.25;53.11;99834.13;10429388;28;20228;-37
2023/09/23 08:53:05;;;;;;;1.93;1.80;;;;;;;14.79;51.88;99835.72;10430894;28;20232;-37
2023/09/23 08:58:07;;;;;;;1.40;1.30;;;;;;;14.42;52.31;99881.13;10432053;28;20231;-38
2023/09/23 09:03:09;;;;;;;2.47;2.07;;;;;;;14.80;51.44;99868.88;10426934;28;20239;-36
2023/09/23 09:08:11;;;;;;;1.50;1.40;;;;;;;14.06;52.64;99919.19;10432373;28;20672;-37
2023/09/23 09:13:17;;;;;;;1.90;1.70;;;;;;;14.99;51.18;99835.69;10428541;28;20225;-38
2023/09/23 09:18:18;;;;;;;3.90;1.50;;;;;;;14.61;51.19;99913.63;10428293;28;20237;-36
2023/09/23 09:23:21;;;;;;;2.73;1.90;;;;;;;14.03;51.79;99968.81;10430612;28;20235;-39
2023/09/23 09:28:23;;;;;;;1.80;1.70;;;;;;;14.44;51.45;99959.00;10414731;28;20233;-37
2023/09/23 09:33:27;;;;;;;2.80;1.57;;;;;;;15.33;49.90;99906.47;10427101;28;20228;-38
2023/09/23 09:38:33;;;;;;;2.20;1.50;;;;;;;15.34;49.30;99910.81;10427622;28;20232;-38
2023/09/23 09:43:35;;;;;;;1.57;1.47;;;;;;;14.81;49.75;99962.09;10427434;28;20342;-37
2023/09/23 09:48:39;;;;;;;2.00;1.80;;;;;;;15.85;48.74;99887.56;10432693;28;20330;-38
2023/09/23 09:53:44;;;;;;;4.93;1.80;;;;;;;15.41;49.47;99930.50;10433132;28;20235;-37
2023/09/23 09:58:48;;;;;;;2.07;1.60;;;;;;;15.25;48.89;99974.09;10422568;28;20603;-38
2023/09/23 10:03:53;;;;;;;2.67;1.70;;;;;;;15.73;48.18;99954.88;10432994;28;20231;-37
2023/09/23 10:08:57;;;;;;;4.30;1.67;;;;;;;15.98;49.09;99916.38;10429466;28;20326;-37
2023/09/23 10:13:58;;;;;;;1.47;1.37;;;;;;;15.60;48.36;99960.34;10427817;28;20225;-39
2023/09/23 10:19:01;;;;;;;3.00;1.43;;;;;;;15.50;47.46;99983.16;10424155;28;20983;-35
2023/09/23 10:24:05;;;;;;;2.20;1.70;;;;;;;15.55;48.12;99931.28;10428274;28;20231;-37
2023/09/23 10:29:07;;;;;;;2.30;1.40;;;;;;;15.77;47.09;99910.22;10425292;28;20290;-36
2023/09/23 10:34:10;;;;;;;2.30;1.80;;;;;;;15.12;48.94;99989.25;10430108;28;20228;-38
2023/09/23 10:39:15;;;;;;;3.90;1.40;;;;;;;15.64;47.45;99957.00;10424255;28;20274;-36
2023/09/23 10:44:23;;;;;;;3.30;1.77;;;;;;;16.84;45.90;99851.88;10424530;28;20243;-38
2023/09/23 10:49:25;;;;;;;3.87;1.80;;;;;;;15.35;47.10;99930.53;10408360;28;20251;-39
2023/09/23 10:54:27;;;;;;;1.70;1.60;;;;;;;16.22;46.55;99917.44;10411057;28;20289;-39
2023/09/23 10:59:30;;;;;;;2.07;1.67;;;;;;;15.66;46.00;99954.09;10423472;28;20223;-38
2023/09/23 11:06:17;;;;;;;1.50;1.30;;;;;;;13.71;49.90;99936.25;10434138;27;20821;-76
2023/09/23 11:11:18;;;;;;;2.33;1.60;;;;;;;14.51;48.20;99895.19;10432497;28;20236;-75
2023/09/23 11:16:22;;;;;;;2.07;1.67;;;;;;;15.15;48.67;99882.91;10436885;28;20722;-76
2023/09/23 11:21:23;;;;;;;3.50;1.70;;;;;;;15.55;48.28;99850.38;10434236;28;20371;-75
2023/09/23 11:26:26;;;;;;;3.03;1.60;;;;;;;15.62;47.24;99885.41;10432253;28;20227;-75
2023/09/23 11:31:28;;;;;;;2.97;1.40;;;;;;;14.83;47.00;99944.75;10430497;28;20258;-75
2023/09/23 11:36:30;;;;;;;2.50;1.30;;;;;;;15.69;46.63;99899.72;10431872;28;20232;-75
2023/09/23 11:41:31;;;;;;;2.20;1.53;;;;;;;15.25;47.23;100001.03;10435441;28;20335;-75
2023/09/23 11:46:33;;;;;;;3.10;1.93;;;;;;;15.36;47.50;99906.03;10437236;28;20642;-75
2023/09/23 11:51:35;;;;;;;2.63;1.83;;;;;;;16.17;45.72;99910.00;10433258;28;20376;-75
2023/09/23 11:56:37;;;;;;;1.70;1.60;;;;;;;15.55;46.14;99971.75;10434977;28;20385;-75
2023/09/23 12:01:39;;;;;;;3.67;1.70;;;;;;;16.05;45.75;99876.66;10432399;28;21539;-75
2023/09/23 12:06:40;;;;;;;3.60;1.77;;;;;;;15.57;46.47;99958.06;10432883;28;20243;-75
2023/09/23 12:11:42;;;;;;;1.70;1.60;;;;;;;16.09;45.13;99929.16;10439345;28;20227;-76
2023/09/23 12:16:44;;;;;;;2.53;1.73;;;;;;;16.17;45.57;99933.47;10413620;28;20240;-76
2023/09/23 12:21:49;;;;;;;3.47;1.50;;;;;;;16.32;45.77;99935.91;10412988;28;20604;-76
2023/09/23 12:26:51;;;;;;;3.10;1.60;;;;;;;15.86;46.02;99954.81;10409831;28;20236;-75
2023/09/23 12:31:52;;;;;;;3.03;1.67;;;;;;;16.50;45.69;99917.06;10410241;28;20243;-75
2023/09/23 12:36:54;;;;;;;3.10;1.60;;;;;;;16.37;45.51;99912.56;10407230;28;20259;-75
2023/09/23 12:41:56;;;;;;;2.40;1.60;;;;;;;16.09;45.17;99953.44;10406813;28;20684;-75
2023/09/23 12:46:58;;;;;;;3.50;1.63;;;;;;;16.36;44.34;99943.31;10405320;28;20236;-75
2023/09/23 12:52:00;;;;;;;1.70;1.60;;;;;;;15.99;44.95;100028.66;10407127;28;20232;-75
2023/09/23 12:57:02;;;;;;;1.77;1.67;;;;;;;16.32;44.49;99944.81;10411240;28;20251;-76
2023/09/23 13:02:03;;;;;;;2.30;1.50;;;;;;;16.60;44.18;99957.91;10402607;28;20343;-75
2023/09/23 13:07:06;;;;;;;3.77;1.60;;;;;;;16.19;45.29;99964.59;10410502;28;20233;-75
2023/09/23 13:12:07;;;;;;;2.90;1.80;;;;;;;16.35;44.81;100011.06;10403795;28;20628;-75
2023/09/23 13:17:09;;;;;;;2.33;1.83;;;;;;;15.37;46.67;100026.34;10410741;28;20255;-75
2023/09/23 13:22:10;;;;;;;3.57;1.43;;;;;;;15.96;46.36;99975.09;10402043;28;20237;-76
2023/09/23 13:27:12;;;;;;;2.57;1.97;;;;;;;15.66;46.40;99981.06;10409860;28;20228;-75
2023/09/23 13:32:16;;;;;;;3.07;1.43;;;;;;;15.07;46.86;100013.31;10404260;28;20502;-75
2023/09/23 13:37:18;;;;;;;3.10;1.57;;;;;;;15.36;46.38;99996.91;10402105;28;20244;-76
2023/09/23 13:42:19;;;;;;;2.77;1.63;;;;;;;15.92;46.13;99922.63;10407475;28;20298;-76
2023/09/23 13:47:21;;;;;;;2.93;1.30;;;;;;;16.03;45.98;99919.25;10405004;28;20323;-77
2023/09/23 13:52:23;;;;;;;1.70;1.40;;;;;;;15.83;46.31;100011.09;10408024;28;20279;-74
2023/09/23 13:57:25;;;;;;;2.40;1.50;;;;;;;16.03;46.38;99981.31;10405935;28;20748;-74
2023/09/23 14:02:26;;;;;;;2.60;1.47;;;;;;;17.07;45.35;99908.00;10410818;28;20616;-74
2023/09/23 14:07:28;;;;;;;4.30;1.53;;;;;;;17.50;44.43;99890.88;10408811;28;20396;-74
2023/09/23 14:12:30;;;;;;;1.43;1.20;;;;;;;17.03;45.06;99958.19;10406561;28;20224;-74
2023/09/23 14:17:32;;;;;;;4.33;2.30;;;;;;;16.36;44.98;100032.44;10403823;28;20745;-75
2023/09/23 14:22:34;;;;;;;2.40;1.40;;;;;;;18.06;42.88;99916.75;10409725;28;20334;-76
2023/09/23 14:27:35;;;;;;;1.23;1.13;;;;;;;17.31;43.18;99960.38;10408476;28;20335;-76
2023/09/23 14:32:38;;;;;;;1.50;1.40;;;;;;;17.76;42.85;99972.78;10410986;28;20247;-76
2023/09/23 14:37:40;;;;;;;1.92;1.70;;;;;;;17.35;41.86;100078.69;10360996;22;20232;-36
2023/09/23 14:42:42;;;;;;;2.60;1.52;;;;;;;18.00;42.27;99977.25;10333856;28;20252;-39
2023/09/23 14:47:45;;;;;;;1.52;1.42;;;;;;;15.40;42.09;100141.84;10335793;28;21053;-39
2023/09/23 14:52:48;;;;;;;1.40;1.30;;;;;;;16.50;42.13;100030.50;10334069;28;20576;-39
2023/09/23 14:57:49;;;;;;;2.45;1.30;;;;;;;16.77;41.98;100082.47;10333720;28;20324;-37
2023/09/23 15:02:51;;;;;;;1.77;1.38;;;;;;;16.84;42.84;100095.09;10333247;28;20303;-38
2023/09/23 15:07:53;;;;;;;1.92;1.38;;;;;;;17.46;42.20;100022.19;10336288;28;20662;-38
2023/09/23 15:12:55;;;;;;;1.97;1.60;;;;;;;16.24;42.27;100124.06;10330591;28;20234;-38
2023/09/23 15:17:57;;;;;;;1.88;1.73;;;;;;;16.68;42.24;100134.28;10333932;28;20325;-37
2023/09/23 15:23:01;;;;;;;1.33;1.13;;;;;;;16.66;43.25;100052.63;10336293;28;20229;-37
2023/09/23 15:28:05;;;;;;;1.73;1.40;;;;;;;16.52;43.28;100101.31;10334844;28;20229;-38
2023/09/23 15:33:06;;;;;;;0.98;0.98;;;;;;;16.70;42.86;100078.16;10330763;28;20285;-37
2023/09/23 15:38:09;;;;;;;1.40;1.30;;;;;;;17.03;42.24;100067.13;10336621;28;20278;-37
2023/09/23 15:43:14;;;;;;;2.45;1.50;;;;;;;17.59;42.94;99995.00;10333850;28;20231;-38
2023/09/23 15:48:15;;;;;;;1.73;1.50;;;;;;;16.22;44.81;100049.72;10337830;28;20297;-38
2023/09/23 15:53:18;;;;;;;2.00;1.80;;;;;;;17.69;42.88;99964.75;10341043;28;20272;-37
2023/09/23 15:58:20;;;;;;;2.93;1.60;;;;;;;16.86;44.02;100093.84;10343130;28;20789;-38
2023/09/23 16:03:21;;;;;;;1.95;1.50;;;;;;;15.13;47.70;100089.81;10340426;28;20646;-39
2023/09/23 16:08:25;;;;;;;1.77;1.67;;;;;;;14.97;49.76;100004.00;10342702;28;20225;-37
2023/09/23 16:13:27;;;;;;;3.73;1.80;;;;;;;14.29;52.68;100030.00;10343683;28;20257;-37
2023/09/23 16:18:29;;;;;;;3.30;1.90;;;;;;;15.77;52.47;99982.25;10344267;28;20242;-36
2023/09/23 16:23:31;;;;;;;3.90;2.07;;;;;;;16.31;51.76;100016.06;10346597;28;20242;-37
2023/09/23 16:28:32;;;;;;;3.47;2.00;;;;;;;17.10;51.85;99965.16;10344312;28;20284;-37
2023/09/23 16:33:34;;;;;;;2.80;1.97;;;;;;;16.82;52.56;100000.75;10346099;28;20318;-37
2023/09/23 16:38:36;;;;;;;4.03;2.00;;;;;;;17.46;51.47;100005.97;10349653;28;20269;-37
2023/09/23 16:43:38;;;;;;;7.33;2.00;;;;;;;17.45;50.91;100039.50;10342673;28;20235;-37
2023/09/23 16:48:40;;;;;;;1.73;1.63;;;;;;;16.18;54.52;100086.28;10341022;28;20245;-37
2023/09/23 16:53:42;;;;;;;2.67;1.50;;;;;;;15.00;56.12;100098.72;10346812;28;20376;-37
2023/09/23 16:58:43;;;;;;;2.33;1.40;;;;;;;15.02;51.87;100069.69;10342198;28;20244;-37
2023/09/23 17:03:45;;;;;;;4.33;1.53;;;;;;;15.68;50.13;100051.81;10336994;28;20237;-37
2023/09/23 17:08:48;;;;;;;2.03;1.77;;;;;;;13.54;54.55;100163.47;10341951;28;20238;-37
2023/09/23 17:13:50;;;;;;;3.60;1.63;;;;;;;14.46;53.72;100041.22;10341552;28;20646;-37
2023/09/23 17:18:52;;;;;;;2.93;1.40;;;;;;;14.85;50.22;100044.22;10381152;22;20236;-34
2023/09/23 17:23:54;;;;;;;3.20;1.83;;;;;;;15.87;48.26;100037.41;10426192;28;20316;-34
2023/09/23 17:28:59;;;;;;;1.50;1.40;;;;;;;15.29;50.35;100159.47;10412336;28;20232;-35
2023/09/23 17:34:01;;;;;;;1.70;1.60;;;;;;;13.63;53.26;100167.66;10395074;28;20919;-34
2023/09/23 17:39:04;;;;;;;1.47;1.37;;;;;;;16.75;49.11;100070.22;10396092;28;20224;-34
2023/09/23 17:44:05;;;;;;;1.40;1.30;;;;;;;16.00;51.27;100162.56;10397676;28;20314;-34
2023/09/23 17:49:08;;;;;;;3.60;2.90;;;;;;;17.20;50.66;100055.75;10395337;28;20248;-35
2023/09/23 17:54:10;;;;;;;4.53;3.43;;;;;;;16.64;51.95;100171.72;10385946;28;20362;-36
2023/09/23 17:59:12;;;;;;;6.80;3.73;;;;;;;17.15;51.52;100097.78;10396015;28;20232;-35
2023/09/23 18:04:14;;;;;;;3.83;2.90;;;;;;;17.23;51.14;100110.22;10394145;28;20237;-34
2023/09/23 18:09:16;;;;;;;2.77;2.20;;;;;;;17.45;50.51;100185.56;10391004;28;20282;-35
2023/09/23 18:14:17;;;;;;;2.30;2.10;;;;;;;16.44;52.69;100220.41;10392906;28;20285;-35
2023/09/23 18:19:19;;;;;;;2.67;1.90;;;;;;;16.20;53.11;100189.53;10392150;28;20610;-37
2023/09/23 18:24:21;;;;;;;3.00;2.10;;;;;;;16.87;52.20;100129.78;10393710;28;20243;-35
2023/09/23 18:29:23;;;;;;;2.17;1.70;;;;;;;16.92;51.52;100159.69;10391208;28;20286;-35
2023/09/23 18:34:25;;;;;;;2.40;2.00;;;;;;;17.11;50.71;100152.56;10395247;28;20201;-34
2023/09/23 18:39:27;;;;;;;2.50;2.07;;;;;;;14.45;53.43;100302.59;10389597;28;20317;-36
2023/09/23 18:44:29;;;;;;;2.30;2.10;;;;;;;16.33;50.29;100156.25;10392566;28;20278;-35
2023/09/23 18:49:31;;;;;;;2.57;2.30;;;;;;;16.21;49.16;100220.84;10392984;28;20331;-34
2023/09/23 18:54:33;;;;;;;2.70;2.50;;;;;;;15.60;50.13;100244.38;10391928;28;20667;-36
2023/09/23 18:59:36;;;;;;;4.17;2.47;;;;;;;15.67;52.44;100230.88;10392955;28;20240;-34
2023/09/23 19:04:38;;;;;;;3.97;2.90;;;;;;;16.30;50.90;100272.78;10391408;28;20259;-35
2023/09/23 19:09:40;;;;;;;3.97;2.83;;;;;;;16.16;52.15;100285.47;10392877;28;20229;-35
2023/09/23 19:14:42;;;;;;;6.93;3.30;;;;;;;15.19;53.35;100349.63;10391247;28;20315;-36
2023/09/23 19:19:44;;;;;;;5.43;3.00;;;;;;;15.68;52.54;100254.97;10387570;28;20233;-34
2023/09/23 19:24:46;;;;;;;4.43;3.03;;;;;;;15.59;52.64;100250.81;10393456;28;20419;-35
2023/09/23 19:29:49;;;;;;;3.77;2.37;;;;;;;14.93;52.29;100332.28;10400363;28;20336;-37
2023/09/23 19:34:51;;;;;;;2.03;1.80;;;;;;;15.38;50.68;100261.75;10401127;28;20240;-36
2023/09/23 19:39:53;;;;;;;1.80;1.70;;;;;;;14.42;51.88;100329.91;10399939;28;20240;-35
2023/09/23 19:44:55;;;;;;;3.30;1.90;;;;;;;14.68;51.90;100319.31;10391707;28;20232;-35
2023/09/23 19:49:59;;;;;;;3.23;2.13;;;;;;;14.20;52.19;100349.63;10398184;28;20224;-35
2023/09/23 19:55:02;;;;;;;3.43;2.07;;;;;;;14.37;51.82;100369.03;10399489;28;20287;-35
2023/09/23 20:00:05;;;;;;;1.90;1.70;;;;;;;14.56;51.32;100361.25;10393620;28;20226;-36
2023/09/23 20:05:07;;;;;;;2.07;1.77;;;;;;;15.24;50.75;100345.28;10397955;28;20225;-36
2023/09/23 20:10:10;;;;;;;2.20;1.97;;;;;;;15.04;51.36;100409.06;10397909;28;20845;-36
2023/09/23 20:15:13;;;;;;;2.90;2.00;;;;;;;14.70;53.05;100387.28;10397826;28;20248;-36
2023/09/23 20:20:15;;;;;;;3.43;2.07;;;;;;;15.25;51.80;100368.53;10395713;28;20306;-35
2023/09/23 20:25:17;;;;;;;5.90;1.73;;;;;;;14.63;52.85;100405.25;10383757;28;20706;-35
2023/09/23 20:30:19;;;;;;;1.90;1.73;;;;;;;14.80;52.89;100386.09;10393029;28;20240;-35
2023/09/23 20:35:22;;;;;;;3.87;2.00;;;;;;;15.31;51.47;100367.72;10396079;28;20228;-35
2023/09/23 20:40:25;;;;;;;2.73;1.90;;;;;;;15.13;51.27;100387.16;10397283;28;20301;-37
2023/09/23 20:45:28;;;;;;;4.40;1.80;;;;;;;14.68;52.13;100453.97;10380319;28;20240;-35
2023/09/23 20:50:29;;;;;;;2.93;2.23;;;;;;;14.70;52.79;100398.03;10400437;28;20228;-39
2023/09/23 20:55:32;;;;;;;2.23;2.03;;;;;;;12.84;55.16;100480.09;10394914;28;21076;-38
2023/09/23 21:00:35;;;;;;;1.90;1.80;;;;;;;13.48;53.92;100434.75;10395700;28;20266;-39
2023/09/23 21:05:37;;;;;;;3.70;1.70;;;;;;;13.50;53.50;100428.34;10396762;28;20298;-38
2023/09/23 21:10:39;;;;;;;3.73;1.60;;;;;;;13.36;53.14;100464.97;10400773;28;20237;-39
2023/09/23 21:15:41;;;;;;;2.43;1.87;;;;;;;14.29;52.23;100369.16;10396628;28;20365;-36
2023/09/23 21:20:43;;;;;;;2.03;1.93;;;;;;;12.81;54.44;100518.91;10398269;28;20238;-37
2023/09/23 21:25:46;;;;;;;2.30;2.10;;;;;;;14.03;52.45;100428.94;10394851;28;20593;-37
2023/09/23 21:30:48;;;;;;;2.30;2.10;;;;;;;14.57;51.60;100417.63;10393473;28;20327;-38
2023/09/23 21:35:51;;;;;;;2.60;1.97;;;;;;;14.61;51.42;100450.41;10394892;28;20386;-35
2023/09/23 21:40:55;;;;;;;2.00;1.90;;;;;;;14.73;50.87;100459.63;10375461;28;20681;-35
2023/09/23 21:45:56;;;;;;;2.80;2.27;;;;;;;14.23;51.52;100512.59;10393919;28;20244;-37
2023/09/23 21:51:00;;;;;;;3.63;2.40;;;;;;;14.05;52.12;100523.75;10394843;28;20259;-37
2023/09/23 21:56:02;;;;;;;2.43;2.23;;;;;;;13.97;52.22;100510.41;10393697;28;20232;-35
2023/09/23 22:01:04;;;;;;;2.20;1.90;;;;;;;14.14;51.95;100490.34;10393733;28;20245;-37
2023/09/23 22:06:07;;;;;;;3.53;2.30;;;;;;;13.73;52.42;100546.53;10396264;28;20791;-35
2023/09/23 22:11:09;;;;;;;3.00;1.87;;;;;;;13.05;54.65;100514.31;10396456;28;20263;-37
2023/09/23 22:16:12;;;;;;;2.00;1.90;;;;;;;13.33;53.97;100478.78;10390003;28;20626;-35
2023/09/23 22:21:14;;;;;;;2.50;1.97;;;;;;;13.25;53.76;100522.69;10394086;28;20624;-38
2023/09/23 22:26:16;;;;;;;1.90;1.67;;;;;;;12.37;55.25;100551.78;10391572;28;20609;-37
2023/09/23 22:31:25;;;;;;;1.93;1.80;;;;;;;12.99;54.70;100491.72;10393539;28;20229;-36
2023/09/23 22:36:26;;;;;;;2.13;1.93;;;;;;;12.74;55.38;100448.97;10391761;28;20236;-37
2023/09/23 22:41:30;;;;;;;2.30;2.10;;;;;;;12.86;54.71;100475.41;10391736;28;20225;-37
2023/09/23 22:46:32;;;;;;;3.20;1.80;;;;;;;12.83;54.04;100524.94;10392989;28;20241;-37
2023/09/23 22:51:34;;;;;;;1.83;1.73;;;;;;;13.18;53.34;100511.84;10393179;28;20271;-37
2023/09/23 22:56:36;;;;;;;3.97;2.13;;;;;;;13.38;53.02;100490.66;10394008;28;20294;-37
2023/09/23 23:01:40;;;;;;;2.47;1.97;;;;;;;13.91;52.03;100468.13;10393273;28;20232;-37
2023/09/23 23:06:42;;;;;;;3.23;2.23;;;;;;;12.80;53.90;100552.13;10392266;28;20282;-37
2023/09/23 23:11:44;;;;;;;3.17;2.00;;;;;;;12.06;55.71;100576.75;10390636;28;20267;-37
2023/09/23 23:16:47;;;;;;;2.03;1.73;;;;;;;12.23;55.42;100545.28;10391444;28;20236;-36
2023/09/23 23:21:49;;;;;;;3.20;2.07;;;;;;;12.19;55.04;100557.41;10391359;28;20263;-37